Time;durP1;ratioP1;P1;durP2;ratioP2;P2;SDS_P1;SDS_P2;PMS_P1;PMS_P2;Temp;Humidity;BMP_temperature;BMP_pressure;BME280_temperature;BME280_humidity;BME280_pressure;Samples;Min_cycle;Max_cycle;Signal;HPM_P1;HPM_P2
2023/05/21 00:00:59;;;;;;;13.25;5.15;;;;;;;20.42;52.05;100176.13;1730094;83;21211;-77
2023/05/21 00:04:08;;;;;;;8.83;4.85;;;;;;;20.40;52.28;100179.13;1729922;83;21158;-82
2023/05/21 00:07:14;;;;;;;11.78;4.80;;;;;;;20.44;52.18;100179.50;1728922;83;21174;-82
2023/05/21 00:10:19;;;;;;;7.45;4.60;;;;;;;20.43;52.23;100172.26;1729540;83;21532;-82
2023/05/21 00:13:25;;;;;;;12.20;4.67;;;;;;;20.51;52.15;100173.83;1728467;83;21746;-78
2023/05/21 00:16:32;;;;;;;10.85;5.20;;;;;;;20.39;52.51;100168.28;1729316;83;21186;-82
2023/05/21 00:19:38;;;;;;;11.48;4.70;;;;;;;20.32;52.82;100166.16;1728441;83;21217;-83
2023/05/21 00:22:45;;;;;;;12.90;4.83;;;;;;;20.25;53.14;100169.63;1729810;83;21151;-83
2023/05/21 00:25:50;;;;;;;13.30;4.50;;;;;;;20.20;53.42;100166.73;1729447;83;21159;-78
2023/05/21 00:28:55;;;;;;;6.92;4.65;;;;;;;20.15;53.57;100167.47;1728514;83;21190;-78
2023/05/21 00:32:02;;;;;;;11.43;4.37;;;;;;;20.08;53.84;100175.06;1728582;83;21214;-77
2023/05/21 00:35:08;;;;;;;11.03;4.65;;;;;;;20.00;54.18;100172.67;1728813;83;21217;-77
2023/05/21 00:38:16;;;;;;;12.78;4.70;;;;;;;19.91;54.53;100175.80;1729760;83;21159;-76
2023/05/21 00:41:24;;;;;;;13.68;4.22;;;;;;;19.94;54.58;100177.23;1729188;83;21170;-77
2023/05/21 00:44:33;;;;;;;8.85;4.70;;;;;;;19.99;54.43;100173.73;1729028;83;21174;-76
2023/05/21 00:47:40;;;;;;;14.53;4.80;;;;;;;19.87;54.89;100170.97;1728906;83;22032;-76
2023/05/21 00:50:48;;;;;;;8.85;5.30;;;;;;;19.82;55.16;100163.91;1729850;83;21769;-82
2023/05/21 00:53:57;;;;;;;14.73;4.62;;;;;;;19.82;55.33;100163.36;1728452;83;21213;-79
2023/05/21 00:57:03;;;;;;;7.62;4.83;;;;;;;19.84;55.59;100157.56;1728815;83;21316;-82
2023/05/21 01:00:09;;;;;;;13.83;4.85;;;;;;;19.83;55.54;100156.72;1728704;83;21170;-77
2023/05/21 01:03:15;;;;;;;9.23;4.12;;;;;;;19.52;56.53;100148.69;1729854;83;21163;-76
2023/05/21 01:06:22;;;;;;;14.60;5.20;;;;;;;19.43;57.24;100146.80;1729762;83;21264;-77
2023/05/21 01:09:21;;;;;;;9.35;4.25;;;;;;;19.36;57.63;100139.98;1729019;83;21154;-76
2023/05/21 01:12:15;;;;;;;11.75;5.30;;;;;;;19.33;58.47;100134.91;1728995;83;21586;-78
2023/05/21 01:15:21;;;;;;;13.88;4.90;;;;;;;19.36;58.15;100137.76;1728704;83;21194;-77
2023/05/21 01:18:28;;;;;;;13.58;5.70;;;;;;;19.23;58.74;100142.13;1728534;83;21728;-79
2023/05/21 01:21:36;;;;;;;18.03;5.50;;;;;;;19.08;59.57;100146.72;1730166;83;21154;-80
2023/05/21 01:24:47;;;;;;;10.03;5.17;;;;;;;19.11;59.60;100141.56;1728918;83;21174;-77
2023/05/21 01:27:50;;;;;;;11.57;4.15;;;;;;;19.11;59.85;100144.33;1728709;83;21790;-77
2023/05/21 01:30:56;;;;;;;8.95;4.85;;;;;;;19.14;59.93;100143.00;1729830;83;21150;-82
2023/05/21 01:34:02;;;;;;;11.53;5.33;;;;;;;19.12;59.89;100143.79;1728398;83;22200;-77
2023/05/21 01:37:15;;;;;;;14.70;4.95;;;;;;;19.10;59.91;100146.81;1729516;83;21182;-82
2023/05/21 01:41:02;;;;;;;13.03;4.75;;;;;;;19.15;60.00;100148.33;1728332;83;21234;-76
2023/05/21 01:44:09;;;;;;;15.20;4.53;;;;;;;19.14;59.93;100149.38;1729215;83;21174;-77
2023/05/21 01:47:15;;;;;;;10.55;5.00;;;;;;;19.18;59.82;100153.08;1729646;83;21163;-76
2023/05/21 01:50:17;;;;;;;11.30;5.83;;;;;;;19.06;59.93;100152.52;1728706;83;21201;-82
2023/05/21 01:53:24;;;;;;;9.13;5.00;;;;;;;18.96;60.27;100156.40;1729870;83;21714;-82
2023/05/21 01:56:32;;;;;;;26.25;5.42;;;;;;;18.94;60.35;100158.54;1729972;83;21731;-78
2023/05/21 01:59:37;;;;;;;8.55;4.65;;;;;;;18.88;60.58;100154.79;1729888;83;21170;-83
2023/05/21 02:02:43;;;;;;;9.38;5.12;;;;;;;18.89;60.64;100152.86;1729831;83;21292;-77
2023/05/21 02:05:50;;;;;;;13.18;5.80;;;;;;;19.02;60.35;100152.67;1729768;83;21758;-82
2023/05/21 02:08:57;;;;;;;12.70;5.60;;;;;;;19.06;60.24;100148.36;1728801;83;21735;-77
2023/05/21 02:12:03;;;;;;;13.65;5.67;;;;;;;19.04;60.31;100159.36;1728377;83;21186;-80
2023/05/21 02:15:09;;;;;;;13.22;5.15;;;;;;;19.04;60.41;100150.50;1728787;83;21222;-81
2023/05/21 02:18:15;;;;;;;8.38;5.47;;;;;;;18.95;60.95;100158.00;1729540;83;21166;-82
2023/05/21 02:21:22;;;;;;;19.92;6.33;;;;;;;18.93;61.16;100152.70;1729939;83;21778;-77
2023/05/21 02:24:26;;;;;;;15.30;5.55;;;;;;;19.04;60.69;100149.66;1729268;83;21170;-81
2023/05/21 02:27:33;;;;;;;9.60;5.92;;;;;;;19.04;60.67;100152.43;1729872;83;21170;-78
2023/05/21 02:30:40;;;;;;;21.65;5.42;;;;;;;19.11;60.45;100149.03;1729955;83;21131;-83
2023/05/21 02:33:48;;;;;;;8.40;5.22;;;;;;;19.14;60.19;100149.93;1729639;83;21250;-78
2023/05/21 02:36:54;;;;;;;12.30;5.42;;;;;;;19.13;60.07;100153.78;1730141;83;21135;-78
2023/05/21 02:40:02;;;;;;;12.93;5.67;;;;;;;19.15;59.84;100159.41;1729953;83;21783;-82
2023/05/21 02:43:09;;;;;;;14.98;5.53;;;;;;;19.11;59.88;100154.03;1729615;83;21182;-83
2023/05/21 02:46:15;;;;;;;22.07;5.62;;;;;;;19.16;59.78;100149.17;1729603;83;21739;-78
2023/05/21 02:49:22;;;;;;;13.18;5.37;;;;;;;19.31;59.17;100154.27;1728953;83;21791;-82
2023/05/21 02:52:28;;;;;;;14.03;5.55;;;;;;;19.29;59.33;100152.25;1729842;83;21190;-77
2023/05/21 02:55:35;;;;;;;13.25;5.45;;;;;;;19.41;58.92;100156.75;1729750;83;21134;-82
2023/05/21 02:58:40;;;;;;;11.88;5.90;;;;;;;19.50;58.61;100151.71;1729262;83;21194;-77
2023/05/21 03:01:47;;;;;;;12.45;5.78;;;;;;;19.55;58.46;100154.61;1729925;83;21139;-82
2023/05/21 03:04:53;;;;;;;13.88;5.80;;;;;;;19.64;58.22;100155.98;1728714;83;21763;-77
2023/05/21 03:07:59;;;;;;;8.18;4.72;;;;;;;19.64;58.28;100151.82;1729936;83;21150;-79
2023/05/21 03:11:04;;;;;;;11.55;5.10;;;;;;;19.68;58.30;100149.97;1729811;83;21158;-77
2023/05/21 03:14:10;;;;;;;10.90;5.25;;;;;;;19.79;57.84;100153.28;1729098;83;21182;-78
2023/05/21 03:17:16;;;;;;;10.72;5.40;;;;;;;19.87;57.27;100157.93;1729773;83;21155;-77
2023/05/21 03:20:23;;;;;;;12.33;5.00;;;;;;;19.91;56.91;100154.14;1728412;83;21193;-83
2023/05/21 03:23:30;;;;;;;8.08;5.22;;;;;;;19.89;56.66;100153.52;1729857;83;21225;-82
2023/05/21 03:26:37;;;;;;;10.98;4.70;;;;;;;19.99;56.33;100149.59;1729797;83;21154;-77
2023/05/21 03:29:44;;;;;;;12.43;5.53;;;;;;;20.12;55.95;100152.13;1728853;83;21167;-82
2023/05/21 03:32:50;;;;;;;15.93;5.58;;;;;;;20.21;55.35;100162.87;1729771;83;21162;-78
2023/05/21 03:35:58;;;;;;;20.48;6.08;;;;;;;20.32;54.81;100166.16;1729943;83;21154;-77
2023/05/21 03:39:03;;;;;;;19.27;5.25;;;;;;;20.32;54.53;100164.77;1729406;83;21162;-82
2023/05/21 03:42:08;;;;;;;12.55;4.97;;;;;;;20.41;54.12;100161.92;1729727;83;21164;-77
2023/05/21 03:45:18;;;;;;;11.75;4.75;;;;;;;20.57;53.64;100170.09;1729554;83;21166;-77
2023/05/21 03:48:45;;;;;;;15.13;4.85;;;;;;;20.89;52.73;100162.14;1691125;84;21220;-76
2023/05/21 03:51:52;;;;;;;16.17;5.67;;;;;;;21.14;51.61;100153.44;1692114;84;21871;-82
2023/05/21 03:54:59;;;;;;;6.85;4.37;;;;;;;21.42;50.85;100155.37;1726527;83;21754;-83
2023/05/21 03:58:05;;;;;;;17.20;5.03;;;;;;;21.81;49.82;100154.06;1731070;83;21119;-82
2023/05/21 04:01:11;;;;;;;9.80;4.83;;;;;;;22.03;49.30;100151.34;1731345;83;21143;-78
2023/05/21 04:04:17;;;;;;;16.48;4.55;;;;;;;22.23;48.33;100149.44;1731263;83;21217;-78
2023/05/21 04:07:22;;;;;;;11.80;4.10;;;;;;;22.47;47.56;100152.27;1731264;83;21150;-80
2023/05/21 04:10:28;;;;;;;12.15;4.67;;;;;;;22.80;46.74;100152.69;1730282;83;21186;-82
2023/05/21 04:13:34;;;;;;;9.78;4.05;;;;;;;22.95;46.63;100147.86;1731142;83;21198;-83
2023/05/21 04:16:42;;;;;;;17.25;4.42;;;;;;;23.09;45.92;100148.29;1730972;83;21707;-80
2023/05/21 04:19:49;;;;;;;13.75;4.00;;;;;;;23.24;45.32;100153.18;1729530;83;21170;-83
2023/05/21 04:22:55;;;;;;;11.38;4.35;;;;;;;23.34;44.95;100153.31;1731103;83;21130;-78
2023/05/21 04:25:54;;;;;;;12.70;3.98;;;;;;;23.39;44.50;100155.59;1731159;83;21739;-83
2023/05/21 04:28:58;;;;;;;12.43;4.33;;;;;;;23.49;44.88;100159.02;1729802;83;21186;-83
2023/05/21 04:31:50;;;;;;;9.10;4.08;;;;;;;23.57;44.43;100161.34;1731100;83;21149;-83
2023/05/21 04:34:59;;;;;;;9.33;4.10;;;;;;;23.59;44.23;100165.25;1729621;83;21237;-78
2023/05/21 04:38:06;;;;;;;15.50;4.70;;;;;;;23.53;44.55;100160.18;1730489;83;22059;-84
2023/05/21 04:41:12;;;;;;;7.28;4.05;;;;;;;23.80;44.03;100160.70;1729610;83;21786;-79
2023/05/21 04:44:13;;;;;;;7.10;4.00;;;;;;;24.07;43.62;100157.27;1729844;83;21174;-82
2023/05/21 04:47:21;;;;;;;11.15;4.03;;;;;;;24.37;42.73;100163.66;1730639;83;21151;-83
2023/05/21 04:50:24;;;;;;;8.38;3.80;;;;;;;24.54;42.45;100170.99;1731044;83;21189;-83
2023/05/21 04:53:30;;;;;;;9.08;3.95;;;;;;;24.70;42.22;100176.92;1731241;83;21799;-83
2023/05/21 04:56:36;;;;;;;10.78;4.12;;;;;;;24.84;41.40;100177.27;1731278;83;21130;-78
2023/05/21 04:59:42;;;;;;;6.00;3.60;;;;;;;24.92;41.52;100181.78;1730317;83;22345;-83
2023/05/21 05:02:49;;;;;;;13.08;4.47;;;;;;;25.08;41.20;100179.05;1730056;83;21134;-78
2023/05/21 05:05:54;;;;;;;5.60;3.70;;;;;;;25.14;40.64;100191.41;1731053;83;21134;-79
2023/05/21 05:09:01;;;;;;;17.02;4.05;;;;;;;25.15;40.23;100186.08;1730806;83;21186;-82
2023/05/21 05:12:06;;;;;;;6.50;3.70;;;;;;;25.23;39.87;100182.75;1729801;83;21154;-78
2023/05/21 05:15:13;;;;;;;10.03;3.40;;;;;;;25.35;40.07;100186.68;1729831;83;21186;-82
2023/05/21 05:18:18;;;;;;;14.03;4.25;;;;;;;25.39;39.23;100200.97;1731235;83;21130;-83
2023/05/21 05:21:24;;;;;;;20.12;4.40;;;;;;;25.71;38.58;100188.13;1730420;83;21182;-81
2023/05/21 05:24:29;;;;;;;6.92;3.92;;;;;;;25.58;38.72;100188.12;1730362;83;21745;-78
2023/05/21 05:27:35;;;;;;;16.73;3.75;;;;;;;26.02;39.16;100182.00;1729987;83;21218;-78
2023/05/21 05:30:40;;;;;;;10.98;4.37;;;;;;;26.40;38.12;100190.34;1730839;83;21154;-77
2023/05/21 05:33:49;;;;;;;9.70;4.45;;;;;;;26.67;37.65;100180.73;1729753;83;21706;-77
2023/05/21 05:36:56;;;;;;;7.40;3.65;;;;;;;26.68;37.68;100181.04;1731190;83;21727;-79
2023/05/21 05:40:03;;;;;;;6.87;3.45;;;;;;;26.85;37.83;100184.88;1730073;83;21496;-78
2023/05/21 05:43:10;;;;;;;15.65;4.10;;;;;;;26.93;36.62;100176.71;1731419;83;21165;-79
2023/05/21 05:46:15;;;;;;;8.68;4.30;;;;;;;26.69;36.86;100173.73;1730962;83;21747;-84
2023/05/21 05:49:22;;;;;;;12.35;4.08;;;;;;;26.55;37.49;100179.67;1729207;83;21166;-78
2023/05/21 05:52:28;;;;;;;10.43;3.67;;;;;;;26.68;37.58;100169.25;1728734;83;21151;-83
2023/05/21 05:55:34;;;;;;;12.40;4.37;;;;;;;26.84;37.55;100169.18;1730032;83;21155;-82
2023/05/21 05:58:38;;;;;;;16.93;4.60;;;;;;;26.62;37.32;100160.56;1729740;83;21301;-83
2023/05/21 06:01:45;;;;;;;10.45;3.65;;;;;;;26.71;37.04;100198.12;1729574;83;21162;-78
2023/05/21 06:04:52;;;;;;;13.45;4.20;;;;;;;26.64;37.19;100193.95;1729820;83;21182;-78
2023/05/21 06:08:00;;;;;;;11.53;4.03;;;;;;;26.40;37.34;100171.28;1730030;83;21198;-83
2023/05/21 06:11:07;;;;;;;10.72;3.80;;;;;;;26.06;38.10;100171.05;1729889;83;21179;-78
2023/05/21 06:14:14;;;;;;;12.28;4.15;;;;;;;26.16;38.02;100166.29;1729335;83;21178;-83
2023/05/21 06:17:21;;;;;;;9.20;4.30;;;;;;;26.33;38.18;100161.75;1729113;83;21222;-81
2023/05/21 06:20:31;;;;;;;10.07;3.83;;;;;;;26.41;38.27;100167.34;1730360;83;21186;-83
2023/05/21 06:23:37;;;;;;;8.63;3.75;;;;;;;26.53;38.45;100172.66;1729590;83;21182;-78
2023/05/21 06:26:43;;;;;;;5.90;3.55;;;;;;;26.59;38.24;100164.52;1730040;83;21150;-79
2023/05/21 06:29:49;;;;;;;6.95;3.10;;;;;;;26.63;38.74;100165.60;1729058;83;21174;-78
2023/05/21 06:32:56;;;;;;;11.28;3.20;;;;;;;26.85;38.60;100157.66;1728648;83;21170;-82
2023/05/21 06:36:02;;;;;;;10.72;3.62;;;;;;;27.05;38.05;100160.08;1729870;83;21151;-81
2023/05/21 06:39:09;;;;;;;10.48;3.72;;;;;;;27.10;37.42;100156.73;1728438;83;21738;-83
2023/05/21 06:42:14;;;;;;;14.10;3.55;;;;;;;26.79;38.14;100153.77;1729399;83;21166;-80
2023/05/21 06:45:22;;;;;;;8.85;3.77;;;;;;;26.80;38.06;100158.25;1726254;83;21265;-78
2023/05/21 06:48:29;;;;;;;17.92;4.62;;;;;;;26.94;38.25;100154.53;1728818;83;21166;-82
2023/05/21 06:51:36;;;;;;;16.23;4.22;;;;;;;27.17;38.11;100151.63;1727762;83;21186;-82
2023/05/21 06:54:42;;;;;;;12.20;4.25;;;;;;;27.31;38.04;100148.17;1728976;83;21795;-78
2023/05/21 06:57:48;;;;;;;8.88;4.50;;;;;;;27.61;37.40;100151.31;1729929;83;21139;-83
2023/05/21 07:00:54;;;;;;;6.35;3.37;;;;;;;27.70;37.15;100157.41;1729899;83;21162;-78
2023/05/21 07:03:59;;;;;;;10.55;3.52;;;;;;;27.93;37.45;100165.67;1729957;83;21182;-82
2023/05/21 07:07:05;;;;;;;8.53;4.00;;;;;;;28.07;36.71;100151.77;1729950;83;21127;-82
2023/05/21 07:10:12;;;;;;;7.80;3.70;;;;;;;28.34;36.86;100168.66;1699261;84;21185;-82
2023/05/21 07:13:19;;;;;;;10.43;3.02;;;;;;;28.39;36.07;100171.45;1699534;84;21138;-77
2023/05/21 07:16:25;;;;;;;9.30;3.17;;;;;;;28.49;36.64;100160.91;1700514;84;21153;-81
2023/05/21 07:19:31;;;;;;;8.85;3.27;;;;;;;28.84;36.47;100163.57;1699860;84;21745;-83
2023/05/21 07:22:38;;;;;;;9.75;3.12;;;;;;;28.93;35.74;100161.77;1699971;84;21173;-78
2023/05/21 07:25:43;;;;;;;6.80;3.33;;;;;;;28.86;35.22;100162.72;1700700;84;21165;-82
2023/05/21 07:28:49;;;;;;;7.42;2.80;;;;;;;28.55;35.66;100169.28;1700566;84;21717;-78
2023/05/21 07:31:55;;;;;;;16.62;3.70;;;;;;;28.35;36.17;100167.55;1700784;84;21151;-83
2023/05/21 07:35:01;;;;;;;16.20;3.02;;;;;;;28.07;36.79;100163.58;1699621;84;21718;-77
2023/05/21 07:38:07;;;;;;;8.38;2.80;;;;;;;28.02;37.32;100164.47;1699321;84;21201;-77
2023/05/21 07:41:13;;;;;;;6.50;3.02;;;;;;;27.83;37.24;100160.72;1700890;84;21204;-82
2023/05/21 07:44:19;;;;;;;14.63;3.10;;;;;;;27.67;37.42;100165.04;1699502;84;21208;-78
2023/05/21 07:47:26;;;;;;;5.40;2.92;;;;;;;27.57;37.76;100172.69;1700831;84;21154;-78
2023/05/21 07:50:33;;;;;;;11.38;3.30;;;;;;;27.45;38.13;100161.83;1700714;84;21686;-78
2023/05/21 07:53:40;;;;;;;9.40;3.10;;;;;;;27.58;38.62;100159.77;1699874;84;21995;-78
2023/05/21 07:56:49;;;;;;;8.80;3.00;;;;;;;27.69;38.78;100154.33;1700658;84;21205;-83
2023/05/21 08:00:12;;;;;;;8.55;3.37;;;;;;;27.86;38.57;100150.30;1699496;84;21193;-83
2023/05/21 08:03:17;;;;;;;6.75;3.12;;;;;;;28.04;38.09;100149.54;1700116;84;21193;-79
2023/05/21 08:06:23;;;;;;;8.03;3.10;;;;;;;28.18;37.92;100154.77;1700794;84;21161;-81
2023/05/21 08:09:31;;;;;;;9.65;3.45;;;;;;;28.42;38.13;100156.22;1699574;84;21193;-83
2023/05/21 08:12:36;;;;;;;12.85;3.25;;;;;;;28.63;37.72;100153.16;1700966;84;21134;-79
2023/05/21 08:15:43;;;;;;;7.17;2.60;;;;;;;28.77;37.01;100155.51;1700732;84;21162;-82
2023/05/21 08:18:50;;;;;;;10.15;3.33;;;;;;;28.78;36.83;100160.83;1700870;84;21345;-82
2023/05/21 08:21:55;;;;;;;12.30;3.65;;;;;;;28.66;37.10;100151.16;1700954;84;21197;-78
2023/05/21 08:25:02;;;;;;;16.90;3.50;;;;;;;28.66;36.77;100156.78;1699525;84;21216;-78
2023/05/21 08:28:09;;;;;;;15.13;3.30;;;;;;;28.75;37.10;100145.97;1700631;84;21156;-78
2023/05/21 08:31:15;;;;;;;17.52;3.42;;;;;;;28.94;37.19;100157.84;1700760;84;21193;-83
2023/05/21 08:34:22;;;;;;;13.38;3.02;;;;;;;29.06;35.50;100155.42;1699735;84;21158;-78
2023/05/21 08:37:46;;;;;;;12.23;3.22;;;;;;;29.01;35.46;100148.46;1699066;84;21153;-78
2023/05/21 08:40:55;;;;;;;6.70;3.58;;;;;;;29.00;35.94;100149.03;1700982;84;21158;-78
2023/05/21 08:44:03;;;;;;;10.15;3.30;;;;;;;29.25;35.14;100150.63;1699358;84;21749;-78
2023/05/21 08:47:09;;;;;;;7.22;3.10;;;;;;;29.16;35.99;100137.55;1699605;84;21189;-79
2023/05/21 08:50:20;;;;;;;8.13;2.80;;;;;;;29.48;35.61;100138.18;1700393;84;21138;-78
2023/05/21 08:53:29;;;;;;;14.98;2.90;;;;;;;29.69;34.87;100130.24;1699433;84;21180;-77
2023/05/21 08:56:39;;;;;;;8.98;3.47;;;;;;;29.63;34.92;100135.72;1702102;84;21201;-78
2023/05/21 08:59:45;;;;;;;16.65;3.20;;;;;;;29.64;34.73;100131.20;1700982;84;21208;-83
2023/05/21 09:02:55;;;;;;;37.38;4.62;;;;;;;29.73;34.40;100119.45;1701843;84;21213;-79
2023/05/21 09:05:59;;;;;;;17.42;3.60;;;;;;;29.90;33.65;100122.28;1701697;84;21785;-82
2023/05/21 09:09:09;;;;;;;11.33;3.55;;;;;;;29.96;33.91;100119.63;1701554;84;21193;-82
2023/05/21 09:12:14;;;;;;;;;;;;;;;30.04;33.37;100118.34;1704731;84;21133;-82
2023/05/21 09:15:19;;;;;;;8.75;3.12;;;;;;;30.29;32.58;100114.22;1672335;84;20680;-78
2023/05/21 09:18:26;;;;;;;7.30;3.12;;;;;;;30.31;33.40;100122.39;1701823;84;21185;-78
2023/05/21 09:21:49;;;;;;;15.83;2.77;;;;;;;30.44;32.12;100109.41;1702094;84;21161;-78
2023/05/21 09:24:58;;;;;;;15.70;4.08;;;;;;;30.39;33.19;100103.30;1679519;84;21177;-81
2023/05/21 09:28:04;;;;;;;13.78;3.62;;;;;;;30.36;32.37;100100.29;1702153;84;21181;-77
2023/05/21 09:31:10;;;;;;;19.15;3.30;;;;;;;30.44;31.85;100096.71;1701834;84;21761;-77
2023/05/21 09:34:15;;;;;;;9.08;3.10;;;;;;;30.20;32.63;100101.16;1701318;84;21249;-83
2023/05/21 09:37:22;;;;;;;9.85;3.33;;;;;;;30.17;32.50;100095.58;1701881;84;21138;-78
2023/05/21 09:40:29;;;;;;;10.98;3.33;;;;;;;30.26;32.68;100093.70;1678848;84;21145;-78
2023/05/21 09:43:35;;;;;;;12.85;3.25;;;;;;;30.45;31.55;100089.95;1701882;84;21864;-83
2023/05/21 09:46:41;;;;;;;9.85;3.50;;;;;;;30.51;31.74;100080.21;1702039;84;21153;-82
2023/05/21 09:49:34;;;;;;;6.33;2.57;;;;;;;30.46;31.47;100074.68;1701288;84;21217;-83
2023/05/21 09:52:43;;;;;;;6.25;3.27;;;;;;;30.69;31.83;100079.25;1702232;84;21691;-78
2023/05/21 09:55:48;;;;;;;9.20;3.10;;;;;;;30.65;29.06;100085.27;1674338;85;21239;-82
2023/05/21 09:58:55;;;;;;;5.47;3.22;;;;;;;30.90;28.64;100075.98;1678631;85;21234;-83
2023/05/21 10:02:01;;;;;;;14.00;3.27;;;;;;;31.01;28.41;100077.45;1677735;85;21736;-79
2023/05/21 10:05:06;;;;;;;6.05;3.10;;;;;;;31.07;28.63;100074.75;1677928;85;21299;-78
2023/05/21 10:08:13;;;;;;;11.20;3.40;;;;;;;31.00;28.19;100084.22;1678918;85;21187;-82
2023/05/21 10:11:18;;;;;;;9.53;3.35;;;;;;;31.19;28.75;100070.77;1658541;85;21756;-79
2023/05/21 10:14:27;;;;;;;9.53;2.92;;;;;;;31.55;28.06;100056.61;1678198;85;21227;-82
2023/05/21 10:17:36;;;;;;;16.05;3.62;;;;;;;31.55;28.03;100063.67;1679014;85;21202;-78
2023/05/21 10:20:42;;;;;;;8.38;3.40;;;;;;;31.67;27.53;100053.21;1678630;85;21254;-82
2023/05/21 10:23:50;;;;;;;7.80;3.75;;;;;;;31.71;26.86;100062.72;1677813;84;21787;-78
2023/05/21 10:26:55;;;;;;;13.65;3.45;;;;;;;31.70;26.58;100050.30;1678909;85;21223;-79
2023/05/21 10:30:02;;;;;;;5.22;2.65;;;;;;;31.98;25.55;100043.91;1678022;85;21950;-79
2023/05/21 10:33:08;;;;;;;8.53;2.92;;;;;;;32.03;26.43;100042.34;1678863;85;21195;-83
2023/05/21 10:36:14;;;;;;;9.15;3.67;;;;;;;31.92;26.22;100050.30;1678125;85;21328;-82
2023/05/21 10:39:20;;;;;;;18.60;3.17;;;;;;;31.67;27.76;100039.08;1657864;85;21247;-83
2023/05/21 10:42:40;;;;;;;10.43;3.50;;;;;;;31.53;30.43;100062.34;1678960;85;21198;-80
2023/05/21 10:46:02;;;;;;;25.97;4.67;;;;;;;30.98;32.63;100067.61;1677708;85;21211;-85
2023/05/21 10:49:43;;;;;;;48.15;21.35;;;;;;;30.26;36.43;100061.84;1678467;85;21210;-85
2023/05/21 10:53:01;;;;;;;30.43;13.58;;;;;;;29.56;36.81;100065.67;1673056;85;21271;-78
2023/05/21 10:56:26;;;;;;;19.25;5.05;;;;;;;29.12;35.08;100072.55;1694320;84;21196;-82
2023/05/21 10:59:49;;;;;;;13.15;3.52;;;;;;;28.91;38.79;100086.08;1687152;84;21208;-83
2023/05/21 11:29:53;;;;;;;8.58;2.62;;;;;;;26.42;36.60;100051.25;1840929;76;28096;-83
2023/05/21 11:33:19;;;;;;;5.37;2.80;;;;;;;27.00;36.54;100051.48;1814196;79;21164;-82
2023/05/21 11:36:26;;;;;;;8.65;3.30;;;;;;;26.86;37.05;100049.06;1814208;79;21716;-79
2023/05/21 11:39:25;;;;;;;11.35;3.75;;;;;;;26.06;41.23;100068.19;1813054;79;21246;-79
2023/05/21 11:42:42;;;;;;;7.42;3.52;;;;;;;25.80;41.12;100092.64;1814067;79;21768;-78
2023/05/21 11:45:47;;;;;;;6.87;3.50;;;;;;;25.46;41.15;100086.77;1814524;79;21685;-79
2023/05/21 11:48:53;;;;;;;13.65;3.85;;;;;;;25.07;40.77;100083.61;1813158;79;21211;-84
2023/05/21 11:51:58;;;;;;;12.43;3.85;;;;;;;25.02;43.09;100080.80;1814192;79;21152;-84
2023/05/21 11:55:06;;;;;;;13.30;3.85;;;;;;;24.59;45.73;100065.61;1787397;79;21239;-79
2023/05/21 11:58:12;;;;;;;11.22;4.10;;;;;;;24.59;46.38;100061.41;1813628;79;21176;-79
2023/05/21 12:01:31;;;;;;;11.50;3.92;;;;;;;24.50;46.86;100069.20;1814262;79;21649;-85
2023/05/21 12:04:41;;;;;;;14.03;4.00;;;;;;;24.23;47.76;100070.20;1814338;79;21211;-85
2023/05/21 12:07:50;;;;;;;10.68;4.37;;;;;;;24.06;47.68;100070.95;1814222;79;21156;-78
2023/05/21 12:10:56;;;;;;;10.65;3.95;;;;;;;23.88;48.34;100077.81;1813968;79;21724;-85
2023/05/21 12:14:02;;;;;;;30.17;7.28;;;;;;;23.77;48.52;100081.11;1787768;79;21164;-78
2023/05/21 12:17:09;;;;;;;11.63;4.45;;;;;;;23.27;50.05;100088.48;1814250;79;21704;-78
2023/05/21 12:20:16;;;;;;;15.00;5.37;;;;;;;22.99;52.42;100090.45;1814304;79;22103;-83
2023/05/21 12:23:30;;;;;;;12.70;4.45;;;;;;;22.93;53.06;100085.38;1814555;79;21600;-79
2023/05/21 12:26:36;;;;;;;14.60;4.78;;;;;;;22.87;50.57;100088.36;1813988;79;21204;-82
2023/05/21 12:29:43;;;;;;;14.28;5.00;;;;;;;22.80;51.79;100090.50;1806197;79;21180;-83
2023/05/21 12:32:50;;;;;;;10.15;4.58;;;;;;;22.81;54.63;100087.44;1802891;78;21765;-77
2023/05/21 12:35:57;;;;;;;14.33;4.62;;;;;;;22.86;55.09;100085.26;1802942;79;21176;-78
2023/05/21 12:39:04;;;;;;;10.63;4.60;;;;;;;23.19;52.35;100085.62;1802039;79;21705;-78
2023/05/21 12:42:20;;;;;;;10.95;4.62;;;;;;;22.98;51.57;100081.80;1877079;76;20199;-80
2023/05/21 12:45:26;;;;;;;13.55;3.60;;;;;;;23.10;50.87;100076.05;1781537;80;21176;-79
2023/05/21 12:48:32;;;;;;;6.85;3.22;;;;;;;23.53;48.48;100084.81;1813521;79;21173;-79
2023/05/21 12:51:48;;;;;;;10.30;3.72;;;;;;;23.77;46.82;100092.84;1780556;80;21181;-79
2023/05/21 12:54:59;;;;;;;10.03;3.77;;;;;;;23.89;46.58;100085.91;1781621;80;21192;-79
2023/05/21 12:58:14;;;;;;;12.70;4.05;;;;;;;23.82;47.06;100094.27;1780123;80;21187;-79
2023/05/21 13:01:20;;;;;;;7.25;3.92;;;;;;;23.45;48.53;100087.53;1780737;80;21774;-79
2023/05/21 13:04:26;;;;;;;8.63;3.75;;;;;;;23.50;48.94;100089.52;1780098;80;21208;-79
2023/05/21 13:07:32;;;;;;;9.18;3.62;;;;;;;23.50;48.86;100083.11;1781314;80;21220;-79
2023/05/21 13:10:38;;;;;;;14.68;4.28;;;;;;;23.35;49.49;100090.80;1780168;80;21541;-79
2023/05/21 13:13:45;;;;;;;5.75;3.08;;;;;;;23.25;50.33;100096.30;1781505;80;21168;-79
2023/05/21 13:16:44;;;;;;;6.65;2.85;;;;;;;23.16;49.36;100114.91;1781661;80;21300;-79
2023/05/21 13:19:55;;;;;;;9.60;3.10;;;;;;;23.06;48.72;100145.48;1781084;80;21224;-78
2023/05/21 13:23:03;;;;;;;4.75;2.52;;;;;;;22.89;46.56;100187.41;1774925;80;21196;-79
2023/05/21 13:26:09;;;;;;;5.45;3.12;;;;;;;22.73;47.00;100212.00;1781125;80;21271;-79
2023/05/21 13:29:15;;;;;;;7.35;3.40;;;;;;;22.53;50.18;100227.03;1781572;80;21169;-79
2023/05/21 13:32:21;;;;;;;5.83;3.10;;;;;;;22.34;52.78;100220.91;1780321;80;21224;-78
2023/05/21 13:35:29;;;;;;;7.45;2.67;;;;;;;22.12;55.04;100220.87;1781492;80;21216;-78
2023/05/21 13:38:35;;;;;;;14.78;3.65;;;;;;;21.73;55.61;100217.95;1780014;80;21197;-80
2023/05/21 13:41:42;;;;;;;7.30;3.67;;;;;;;21.73;57.59;100221.28;1775609;80;21157;-81
2023/05/21 13:44:49;;;;;;;5.87;3.25;;;;;;;21.63;58.57;100220.56;1773472;81;21189;-80
2023/05/21 13:47:55;;;;;;;7.87;3.60;;;;;;;21.65;59.14;100228.13;1773256;81;21235;-81
2023/05/21 13:51:02;;;;;;;5.05;3.02;;;;;;;21.69;59.63;100225.98;1773234;81;21248;-81
2023/05/21 13:54:07;;;;;;;8.15;2.95;;;;;;;21.63;60.81;100233.92;1771110;81;21189;-80
2023/05/21 13:57:12;;;;;;;4.90;3.30;;;;;;;21.76;59.75;100236.09;1771301;81;21779;-81
2023/05/21 14:00:19;;;;;;;4.37;2.77;;;;;;;21.86;58.49;100239.05;1771821;81;21189;-80
2023/05/21 14:03:26;;;;;;;6.87;3.17;;;;;;;21.87;58.69;100240.73;1770945;81;21201;-81
2023/05/21 14:06:32;;;;;;;4.90;3.40;;;;;;;21.77;59.04;100241.95;1770874;81;21201;-81
2023/05/21 14:09:38;;;;;;;11.55;3.62;;;;;;;21.71;58.53;100235.46;1771641;81;21261;-81
2023/05/21 14:12:45;;;;;;;10.55;3.45;;;;;;;21.75;59.09;100230.24;1771040;81;21229;-79
2023/05/21 14:15:52;;;;;;;5.83;3.25;;;;;;;21.57;59.77;100226.59;1772195;81;21823;-79
2023/05/21 14:19:02;;;;;;;6.30;3.27;;;;;;;21.51;59.99;100222.03;1772168;81;21192;-79
2023/05/21 14:22:08;;;;;;;6.28;3.67;;;;;;;21.16;61.67;100220.77;1772265;81;21220;-79
2023/05/21 14:25:14;;;;;;;6.33;3.62;;;;;;;21.19;62.39;100214.16;1772895;81;21225;-79
2023/05/21 14:28:21;;;;;;;16.93;3.77;;;;;;;21.18;62.56;100214.42;1771626;81;21165;-78
2023/05/21 14:31:27;;;;;;;7.15;3.95;;;;;;;21.08;62.98;100196.16;1772797;81;21184;-78
2023/05/21 14:34:33;;;;;;;6.78;4.03;;;;;;;21.30;62.23;100179.58;1772764;81;21185;-79
2023/05/21 14:37:39;;;;;;;10.55;3.67;;;;;;;21.38;61.77;100182.00;1772657;81;21173;-79
2023/05/21 14:40:46;;;;;;;6.97;3.95;;;;;;;21.38;62.04;100190.34;1772819;81;21228;-79
2023/05/21 14:43:51;;;;;;;9.85;3.98;;;;;;;21.06;63.67;100194.98;1763901;81;21221;-79
2023/05/21 14:46:57;;;;;;;7.95;3.90;;;;;;;20.98;64.51;100193.98;1802832;79;21748;-78
2023/05/21 14:50:02;;;;;;;4.70;3.47;;;;;;;20.78;65.39;100194.97;1802762;79;21173;-79
2023/05/21 14:53:12;;;;;;;8.43;3.95;;;;;;;20.73;64.86;100194.87;1802101;79;21161;-78